Aviation Digital Data Service (ADDS)

Output produced by METARs form (2201 UTC 29 September 2016)
found at http://aviationweather.gov/adds/metars/
 
KERI 291741Z 2918/3018 05010G20KT P6SM VCSH SCT015 OVC025 
     FM292200 08015G25KT P6SM BKN015 OVC025 
     FM300400 10012G22KT P6SM VCSH OVC015 
     FM300900 10012KT 6SM -SHRA OVC009